Time;durP1;ratioP1;P1;durP2;ratioP2;P2;SDS_P1;SDS_P2;PMS_P1;PMS_P2;Temp;Humidity;BMP_temperature;BMP_pressure;BME280_temperature;BME280_humidity;BME280_pressure;Samples;Min_cycle;Max_cycle;Signal;HPM_P1;HPM_P2
2021/12/06 00:01:07;;;;;;;;;5.00;5.00;;;;;7.03;73.03;100516.47;4968946;28;45457;-70
2021/12/06 00:03:37;;;;;;;;;2.75;1.75;;;;;6.97;72.47;100514.06;5065883;27;45329;-71
2021/12/06 00:06:03;;;;;;;;;4.00;4.00;;;;;6.85;73.23;100485.50;4984725;28;45409;-70
2021/12/06 00:08:28;;;;;;;;;2.00;2.00;;;;;7.10;73.42;100507.31;4993989;27;46229;-70
2021/12/06 00:10:54;;;;;;;;;4.00;1.50;;;;;7.07;72.89;100515.41;4984256;27;45375;-70
2021/12/06 00:13:22;;;;;;;;;5.00;2.00;;;;;7.12;72.55;100522.25;4990848;28;45491;-70
2021/12/06 00:15:50;;;;;;;;;4.75;3.50;;;;;7.08;72.03;100518.91;4990465;27;45480;-70
2021/12/06 00:18:16;;;;;;;;;4.00;4.00;;;;;7.15;72.32;100532.69;5027474;27;47228;-70
2021/12/06 00:20:41;;;;;;;;;2.00;2.00;;;;;7.15;72.36;100525.63;5019715;27;45432;-72
2021/12/06 00:23:07;;;;;;;;;4.75;4.00;;;;;7.14;71.47;100536.28;4994196;27;45395;-72
2021/12/06 00:25:33;;;;;;;;;1.25;1.25;;;;;7.02;71.96;100527.06;5005032;28;45326;-70
2021/12/06 00:27:58;;;;;;;;;1.00;1.00;;;;;7.06;72.48;100523.41;4992983;28;46361;-71
2021/12/06 00:30:23;;;;;;;;;5.00;2.50;;;;;6.98;72.16;100509.63;4992896;28;45466;-69
2021/12/06 00:32:49;;;;;;;;;2.00;2.00;;;;;7.08;72.51;100532.13;5000213;28;45430;-70
2021/12/06 00:35:21;;;;;;;;;4.00;4.00;;;;;7.02;72.49;100520.00;5012600;27;45473;-70
2021/12/06 00:37:58;;;;;;;;;4.00;2.50;;;;;7.10;72.53;100544.34;5018226;27;45460;-71
2021/12/06 00:40:35;;;;;;;;;6.75;4.50;;;;;7.10;72.58;100541.69;5062257;27;45549;-70
2021/12/06 00:43:02;;;;;;;;;2.50;2.50;;;;;7.14;72.67;100546.84;4977320;27;45424;-69
2021/12/06 00:45:28;;;;;;;;;4.00;4.00;;;;;7.02;72.60;100549.09;4986465;28;45664;-69
2021/12/06 00:47:53;;;;;;;;;5.50;5.50;;;;;7.02;72.30;100559.66;4972507;28;45432;-69
2021/12/06 00:50:21;;;;;;;;;4.00;2.00;;;;;7.05;72.64;100554.28;4981985;28;45454;-71
2021/12/06 00:52:48;;;;;;;;;4.50;2.00;;;;;7.05;72.64;100564.00;5067741;27;45377;-70
2021/12/06 00:55:15;;;;;;;;;4.00;4.00;;;;;6.99;73.05;100562.44;5080812;27;45503;-70
2021/12/06 00:57:41;;;;;;;;;4.50;4.00;;;;;6.96;73.07;100548.50;4993551;28;46508;-69
2021/12/06 01:00:12;;;;;;;;;4.50;4.00;;;;;6.86;73.05;100541.88;5009134;27;45385;-70
2021/12/06 01:02:37;;;;;;;;;4.00;4.00;;;;;6.96;73.21;100562.56;4992546;28;45498;-70
2021/12/06 01:05:04;;;;;;;;;3.00;1.75;;;;;6.92;73.10;100579.50;4992114;28;45451;-70
2021/12/06 01:07:30;;;;;;;;;4.50;4.00;;;;;6.82;74.15;100549.06;4970934;28;46867;-73
2021/12/06 01:09:55;;;;;;;;;7.50;1.75;;;;;6.97;73.90;100563.44;4970871;28;45499;-74
2021/12/06 01:12:21;;;;;;;;;2.00;2.00;;;;;7.04;74.50;100579.00;4980726;28;45332;-72
2021/12/06 01:14:46;;;;;;;;;5.50;4.00;;;;;6.94;74.14;100575.00;4994449;27;45328;-71
2021/12/06 01:17:11;;;;;;;;;4.50;4.00;;;;;7.01;74.33;100584.38;5011520;28;46874;-69
2021/12/06 01:19:37;;;;;;;;;2.00;2.00;;;;;6.97;73.98;100588.09;4995475;28;45587;-70
2021/12/06 01:24:39;;;;;;;;;5.00;5.00;;;;;7.07;75.34;100594.72;4987981;28;45547;-70
2021/12/06 01:27:39;;;;;;;;;10.00;4.00;;;;;7.01;75.33;100567.66;4992857;28;45710;-70
2021/12/06 01:33:00;;;;;;;;;5.25;4.25;;;;;7.09;74.08;100599.94;5017511;27;46071;-69
2021/12/06 01:40:38;;;;;;;;;4.50;4.50;;;;;7.02;74.64;100607.25;5013315;28;45254;-69
2021/12/06 01:43:05;;;;;;;;;2.00;2.00;;;;;6.97;75.25;100618.97;5016863;27;45549;-70
2021/12/06 01:45:31;;;;;;;;;2.00;2.00;;;;;6.94;75.15;100614.66;4993632;27;45595;-71
2021/12/06 01:47:56;;;;;;;;;1.25;1.25;;;;;6.93;75.31;100614.72;4995349;27;45427;-70
2021/12/06 01:50:24;;;;;;;;;3.50;3.50;;;;;7.01;75.05;100621.41;4993113;27;45404;-68
2021/12/06 01:52:55;;;;;;;;;2.00;2.00;;;;;6.89;75.24;100598.09;4995786;27;45339;-70
2021/12/06 01:55:25;;;;;;;;;4.00;4.00;;;;;6.93;75.64;100623.53;4996120;28;45564;-71
2021/12/06 01:57:53;;;;;;;;;9.25;5.75;;;;;6.97;75.52;100633.03;4995615;28;46375;-70
2021/12/06 02:00:26;;;;;;;;;0.25;0.00;;;;;6.90;75.78;100615.72;4995028;27;45362;-70
2021/12/06 02:02:52;;;;;;;;;7.50;4.00;;;;;7.04;75.99;100637.16;4992144;28;45240;-70
2021/12/06 02:05:17;;;;;;;;;4.50;3.00;;;;;7.05;75.18;100641.53;4996259;28;45539;-70
2021/12/06 02:07:43;;;;;;;;;4.50;2.00;;;;;7.04;76.01;100647.75;4993162;27;45240;-70
2021/12/06 02:10:09;;;;;;;;;5.75;4.50;;;;;7.08;75.94;100649.34;4983720;28;45227;-70
2021/12/06 02:12:35;;;;;;;;;4.00;4.00;;;;;7.17;75.23;100652.53;4985847;28;45259;-68
2021/12/06 02:15:06;;;;;;;;;6.00;4.25;;;;;7.11;74.94;100648.34;4974785;28;45563;-70
2021/12/06 02:17:38;;;;;;;;;3.75;3.75;;;;;6.97;75.05;100645.41;4993290;27;45606;-71
2021/12/06 02:20:16;;;;;;;;;3.75;1.50;;;;;6.89;75.29;100640.41;5090097;27;45316;-69
2021/12/06 02:22:42;;;;;;;;;6.00;4.00;;;;;7.05;75.80;100664.47;5019341;28;45318;-70
2021/12/06 02:25:15;;;;;;;;;1.00;1.00;;;;;6.94;75.38;100651.69;4990329;28;45410;-69
2021/12/06 02:27:41;;;;;;;;;6.75;5.00;;;;;6.96;76.03;100655.13;4994479;28;46508;-70
2021/12/06 02:30:08;;;;;;;;;2.00;2.00;;;;;7.05;75.81;100660.03;4995205;27;45379;-70
2021/12/06 02:32:35;;;;;;;;;5.25;3.50;;;;;7.13;75.77;100666.78;4995495;28;45264;-70
2021/12/06 02:35:02;;;;;;;;;8.25;5.75;;;;;7.08;75.06;100662.56;5021852;27;45575;-69
2021/12/06 02:37:31;;;;;;;;;2.00;2.00;;;;;7.04;76.19;100647.75;5019516;27;46023;-69
2021/12/06 02:39:58;;;;;;;;;4.00;4.00;;;;;7.01;75.05;100663.72;4979013;28;45339;-70
2021/12/06 02:42:25;;;;;;;;;5.75;4.50;;;;;7.00;75.52;100659.34;5036065;27;45482;-70
2021/12/06 02:44:52;;;;;;;;;4.00;4.00;;;;;7.01;75.88;100669.00;4995912;28;45517;-71
2021/12/06 02:47:19;;;;;;;;;3.50;2.00;;;;;7.07;75.88;100668.78;5009581;28;47757;-72
2021/12/06 02:49:45;;;;;;;;;2.50;2.00;;;;;7.07;75.46;100660.84;4994136;28;45381;-70
2021/12/06 02:52:12;;;;;;;;;5.00;5.00;;;;;7.02;75.13;100654.00;5031802;27;45640;-70
2021/12/06 02:54:39;;;;;;;;;4.75;4.00;;;;;7.16;75.64;100667.56;5017536;28;45484;-69
2021/12/06 02:59:35;;;;;;;;;10.00;4.00;;;;;7.26;75.70;100660.06;4995110;28;45452;-69
2021/12/06 03:02:06;;;;;;;;;2.00;2.00;;;;;7.28;74.80;100655.56;4995021;28;45482;-69
2021/12/06 03:04:32;;;;;;;;;6.25;5.00;;;;;7.40;74.93;100670.94;4965065;28;45670;-71
2021/12/06 03:06:59;;;;;;;;;4.50;3.50;;;;;7.21;75.35;100657.63;4988386;28;46200;-70
2021/12/06 03:09:27;;;;;;;;;4.50;4.50;;;;;7.31;75.11;100674.84;4992329;27;45498;-69
2021/12/06 03:12:12;;;;;;;;;5.00;2.50;;;;;7.27;75.31;100685.59;4990109;27;45291;-70
2021/12/06 03:14:42;;;;;;;;;5.75;5.25;;;;;7.23;75.67;100682.22;4994665;27;45554;-71
2021/12/06 03:17:11;;;;;;;;;2.00;2.00;;;;;7.29;75.25;100689.94;4985080;28;45430;-69
2021/12/06 03:19:37;;;;;;;;;6.00;6.00;;;;;7.29;74.64;100702.25;4994593;28;45276;-71
2021/12/06 03:22:04;;;;;;;;;5.75;5.00;;;;;7.29;76.02;100700.50;4994723;27;45277;-70
2021/12/06 03:24:29;;;;;;;;;5.75;4.50;;;;;7.24;75.42;100683.09;5002684;27;45321;-69
2021/12/06 03:26:55;;;;;;;;;8.75;4.75;;;;;7.33;75.64;100695.94;5043446;27;45589;-69
2021/12/06 03:29:21;;;;;;;;;8.75;6.50;;;;;7.39;75.64;100706.25;5014663;28;45485;-69
2021/12/06 03:31:47;;;;;;;;;6.00;5.00;;;;;7.36;75.26;100695.81;4974381;28;45528;-69
2021/12/06 03:34:14;;;;;;;;;5.00;5.00;;;;;7.37;76.19;100706.34;4975450;28;45544;-69
2021/12/06 03:36:40;;;;;;;;;7.50;5.25;;;;;7.30;76.22;100690.78;4982087;28;45646;-69
2021/12/06 03:39:14;;;;;;;;;7.50;6.00;;;;;7.39;76.67;100701.84;4994601;28;45434;-69
2021/12/06 03:41:40;;;;;;;;;5.00;5.00;;;;;7.36;76.38;100688.75;4999919;27;45492;-69
2021/12/06 03:44:06;;;;;;;;;8.75;5.00;;;;;7.43;76.27;100702.59;5079940;27;45873;-69
2021/12/06 03:46:33;;;;;;;;;8.75;6.00;;;;;7.21;76.14;100665.56;5069335;27;45455;-70
2021/12/06 03:49:01;;;;;;;;;7.00;5.25;;;;;7.40;76.81;100692.97;4973375;28;45382;-68
2021/12/06 03:51:27;;;;;;;;;7.25;6.00;;;;;7.37;76.25;100698.41;4995928;27;45327;-69
2021/12/06 03:53:52;;;;;;;;;8.50;5.00;;;;;7.31;76.88;100703.09;5098461;27;45607;-70
2021/12/06 03:56:18;;;;;;;;;12.50;9.75;;;;;7.34;76.78;100706.47;5080202;27;45346;-70
2021/12/06 03:58:45;;;;;;;;;8.75;7.00;;;;;7.37;76.57;100685.16;5049395;27;45409;-69
2021/12/06 04:01:12;;;;;;;;;10.00;8.75;;;;;7.46;76.43;100714.81;5023851;27;45511;-68
2021/12/06 04:03:38;;;;;;;;;9.25;9.25;;;;;7.44;76.17;100720.19;5008995;27;45640;-68
2021/12/06 04:06:06;;;;;;;;;8.00;8.00;;;;;7.42;75.95;100732.59;5054269;27;46060;-68
2021/12/06 04:08:32;;;;;;;;;6.50;6.50;;;;;7.45;75.99;100737.78;4994102;27;45399;-69
2021/12/06 04:10:57;;;;;;;;;11.00;6.50;;;;;7.54;76.03;100741.81;4994096;27;45550;-68
2021/12/06 04:13:23;;;;;;;;;11.00;9.25;;;;;7.47;75.95;100730.63;4989910;28;45403;-69
2021/12/06 04:15:49;;;;;;;;;7.25;7.25;;;;;7.63;76.16;100747.59;4998122;28;47232;-68
2021/12/06 04:18:15;;;;;;;;;9.25;8.75;;;;;7.71;75.61;100760.53;4985778;28;45927;-70
2021/12/06 04:20:41;;;;;;;;;7.00;5.25;;;;;7.69;74.93;100763.25;4985816;28;45407;-68
2021/12/06 04:23:09;;;;;;;;;6.00;4.50;;;;;7.65;74.94;100750.19;4994033;27;45230;-69
2021/12/06 04:25:36;;;;;;;;;8.50;6.50;;;;;7.63;74.72;100762.63;4991611;28;46034;-69
2021/12/06 04:28:06;;;;;;;;;9.00;7.75;;;;;7.60;75.05;100760.09;4973721;28;45513;-69
2021/12/06 04:30:34;;;;;;;;;9.00;7.75;;;;;7.59;75.41;100761.91;5021599;27;45699;-68
2021/12/06 04:33:00;;;;;;;;;5.25;5.25;;;;;7.62;75.23;100772.34;4991605;27;47082;-68
2021/12/06 04:35:27;;;;;;;;;12.75;7.25;;;;;7.67;75.21;100772.16;4996234;27;46840;-69
2021/12/06 04:37:53;;;;;;;;;6.00;6.00;;;;;7.62;74.97;100761.75;4997919;28;45633;-69
2021/12/06 04:40:19;;;;;;;;;5.75;5.75;;;;;7.61;75.04;100759.19;4993546;28;45440;-70
2021/12/06 04:42:45;;;;;;;;;7.50;7.50;;;;;7.63;75.69;100768.78;4976580;28;45457;-69
2021/12/06 04:45:11;;;;;;;;;8.75;8.00;;;;;7.57;76.59;100763.75;5008480;27;45446;-71
2021/12/06 04:47:38;;;;;;;;;9.25;6.50;;;;;7.64;75.77;100781.09;5024344;27;46791;-70
2021/12/06 04:50:06;;;;;;;;;8.00;6.25;;;;;7.49;76.64;100772.91;5058395;27;45314;-69
2021/12/06 04:52:32;;;;;;;;;5.75;5.75;;;;;7.57;76.52;100800.81;5056747;27;45416;-70
2021/12/06 04:54:59;;;;;;;;;7.25;7.25;;;;;7.62;76.90;100793.53;5027001;27;45564;-68
2021/12/06 04:57:33;;;;;;;;;5.00;5.00;;;;;7.68;76.21;100795.94;4993406;27;45383;-69
2021/12/06 05:00:07;;;;;;;;;9.25;6.00;;;;;7.65;75.96;100803.13;4994231;27;45457;-70
2021/12/06 05:02:36;;;;;;;;;9.50;8.25;;;;;7.42;76.22;100779.34;5037406;27;45814;-69
2021/12/06 05:05:10;;;;;;;;;7.00;7.00;;;;;7.52;75.82;100792.16;5019580;28;46548;-70
2021/12/06 05:07:40;;;;;;;;;14.75;7.75;;;;;7.61;76.20;100812.97;5003964;28;45438;-69
2021/12/06 05:10:08;;;;;;;;;9.00;6.75;;;;;7.58;75.64;100802.53;5013234;28;45403;-70
2021/12/06 05:12:34;;;;;;;;;5.25;5.25;;;;;7.53;75.88;100804.47;5001127;28;45319;-70
2021/12/06 05:15:00;;;;;;;;;8.00;6.00;;;;;7.56;76.20;100809.66;4993314;27;46244;-68
2021/12/06 05:17:28;;;;;;;;;8.00;4.50;;;;;7.47;75.67;100801.22;4974595;28;45425;-69
2021/12/06 05:19:55;;;;;;;;;7.75;5.25;;;;;7.42;76.02;100800.53;5011535;27;45270;-69
2021/12/06 05:22:21;;;;;;;;;8.50;6.00;;;;;7.53;75.72;100816.84;5046547;27;45178;-69
2021/12/06 05:24:47;;;;;;;;;10.00;6.00;;;;;7.58;75.53;100817.53;5011164;27;45495;-67
2021/12/06 05:27:12;;;;;;;;;8.75;7.00;;;;;7.54;75.60;100826.50;5004051;28;45411;-69
2021/12/06 05:29:38;;;;;;;;;8.00;7.25;;;;;7.44;75.71;100815.44;4992065;28;45528;-69
2021/12/06 05:32:04;;;;;;;;;8.50;6.00;;;;;7.54;75.41;100832.66;4991842;28;45476;-70
2021/12/06 05:34:39;;;;;;;;;5.50;5.50;;;;;7.56;75.89;100836.13;4963099;28;46890;-69
2021/12/06 05:37:11;;;;;;;;;13.00;7.50;;;;;7.53;75.54;100828.28;5026266;27;45507;-69
2021/12/06 05:39:37;;;;;;;;;7.50;4.75;;;;;7.60;75.16;100848.31;5034794;28;45923;-70
2021/12/06 05:42:06;;;;;;;;;8.25;5.75;;;;;7.58;75.69;100852.81;4976289;28;45453;-68
2021/12/06 05:44:32;;;;;;;;;6.75;6.00;;;;;7.59;75.50;100849.25;5012946;28;45346;-69
2021/12/06 05:46:58;;;;;;;;;6.75;4.00;;;;;7.50;75.26;100839.00;5006895;28;45453;-68
2021/12/06 05:49:25;;;;;;;;;7.50;5.50;;;;;7.50;74.63;100849.59;4974126;28;45463;-68
2021/12/06 05:51:51;;;;;;;;;7.25;6.75;;;;;7.45;75.45;100838.34;5001435;27;45624;-68
2021/12/06 05:54:17;;;;;;;;;8.00;5.00;;;;;7.51;75.42;100850.44;5048919;27;46388;-70
2021/12/06 05:56:44;;;;;;;;;17.00;8.75;;;;;7.50;75.39;100840.78;5061975;27;46113;-70
2021/12/06 05:59:10;;;;;;;;;7.75;6.00;;;;;7.28;74.88;100809.00;4986610;28;45458;-69
2021/12/06 06:01:35;;;;;;;;;8.50;7.50;;;;;7.57;75.27;100853.75;4997375;28;45553;-67
2021/12/06 06:04:01;;;;;;;;;8.25;6.00;;;;;7.46;74.63;100833.91;4992100;27;46046;-68
2021/12/06 06:06:35;;;;;;;;;9.50;8.00;;;;;7.57;75.18;100858.16;4992054;27;45336;-69
2021/12/06 06:09:01;;;;;;;;;11.75;6.00;;;;;7.53;74.56;100857.41;5003801;27;45512;-69
2021/12/06 06:11:27;;;;;;;;;8.00;6.00;;;;;7.53;75.26;100862.69;5012729;28;45406;-70
2021/12/06 06:13:53;;;;;;;;;9.00;7.50;;;;;7.56;74.55;100862.59;5006735;28;45986;-71
2021/12/06 06:16:21;;;;;;;;;9.75;6.00;;;;;7.56;75.79;100867.91;4993175;28;45529;-67
2021/12/06 06:18:52;;;;;;;;;10.75;8.00;;;;;7.56;74.90;100867.91;4993551;28;45518;-70
2021/12/06 06:21:20;;;;;;;;;7.50;7.50;;;;;7.62;74.71;100875.59;4992916;28;45531;-69
2021/12/06 06:23:48;;;;;;;;;8.25;6.50;;;;;7.55;74.83;100866.19;5002311;28;47132;-69
2021/12/06 06:26:14;;;;;;;;;7.25;6.00;;;;;7.67;75.08;100886.84;4993075;28;45420;-67
2021/12/06 06:28:40;;;;;;;;;9.50;8.25;;;;;7.62;74.33;100872.94;5013589;28;45751;-68
2021/12/06 06:31:05;;;;;;;;;8.75;5.00;;;;;7.67;74.95;100876.25;4999107;28;45528;-69
2021/12/06 06:33:31;;;;;;;;;14.00;8.00;;;;;7.73;74.85;100884.88;4995476;27;45456;-67
2021/12/06 06:35:56;;;;;;;;;9.75;9.75;;;;;7.71;74.63;100877.00;4982910;28;45349;-66
2021/12/06 06:38:23;;;;;;;;;8.00;8.00;;;;;7.84;74.55;100885.34;4976892;28;45276;-70
2021/12/06 06:40:49;;;;;;;;;5.00;4.75;;;;;7.64;73.78;100867.56;4993765;27;45645;-71
2021/12/06 06:43:16;;;;;;;;;11.25;8.50;;;;;7.36;73.78;100830.75;4995857;27;46470;-74
2021/12/06 06:45:41;;;;;;;;;9.50;8.75;;;;;7.67;74.32;100875.38;4975756;28;45441;-70
2021/12/06 06:48:07;;;;;;;;;8.25;8.25;;;;;7.63;74.69;100861.41;4989283;28;45675;-64
2021/12/06 06:50:32;;;;;;;;;7.50;7.50;;;;;7.72;74.29;100867.28;4984255;28;45496;-63
2021/12/06 06:52:58;;;;;;;;;9.75;6.75;;;;;7.86;73.43;100880.84;5055470;27;45447;-69
2021/12/06 06:55:24;;;;;;;;;7.75;7.75;;;;;7.91;73.41;100887.66;5002272;27;45447;-66
2021/12/06 06:57:51;;;;;;;;;12.75;9.00;;;;;7.81;72.77;100873.09;5018372;27;45411;-67
2021/12/06 07:00:43;;;;;;;;;6.00;6.00;;;;;7.82;73.20;100903.06;5013913;28;45527;-68
2021/12/06 07:03:09;;;;;;;;;14.25;12.00;;;;;7.65;73.72;100886.03;4969849;28;47300;-67
2021/12/06 07:05:39;;;;;;;;;13.75;10.75;;;;;7.64;73.41;100918.72;4977355;28;45542;-73
2021/12/06 07:08:05;;;;;;;;;9.75;9.75;;;;;7.61;73.79;100923.28;4992375;28;45465;-68
2021/12/06 07:10:31;;;;;;;;;13.00;10.75;;;;;7.42;73.80;100882.56;4987940;27;45585;-68
2021/12/06 07:13:00;;;;;;;;;19.00;13.00;;;;;7.66;73.25;100927.47;4972249;28;46156;-66
2021/12/06 07:15:28;;;;;;;;;19.50;11.75;;;;;7.64;74.07;100933.75;4982433;28;45463;-78
2021/12/06 07:17:55;;;;;;;;;13.50;10.50;;;;;7.65;74.52;100931.03;4982773;28;45489;-70
2021/12/06 07:20:22;;;;;;;;;13.00;12.00;;;;;7.63;73.99;100929.38;4979456;27;45924;-70
2021/12/06 07:22:51;;;;;;;;;9.75;8.00;;;;;7.41;73.84;100910.81;4979112;27;45493;-71
2021/12/06 07:25:17;;;;;;;;;9.25;8.25;;;;;7.47;74.28;100941.47;4957623;28;45999;-71
2021/12/06 07:27:43;;;;;;;;;13.50;11.00;;;;;7.40;74.76;100931.09;4975215;28;45276;-76
2021/12/06 07:30:10;;;;;;;;;12.00;9.75;;;;;7.55;74.49;100929.69;4976950;28;45688;-66
2021/12/06 07:32:36;;;;;;;;;9.00;9.00;;;;;7.65;73.88;100946.94;4988388;27;46154;-73
2021/12/06 07:35:04;;;;;;;;;9.00;8.25;;;;;7.66;73.79;100943.34;4973412;28;45486;-73
2021/12/06 07:37:29;;;;;;;;;11.75;8.25;;;;;7.57;73.46;100927.84;4959264;28;45469;-71
2021/12/06 07:39:54;;;;;;;;;8.50;8.50;;;;;7.36;74.14;100887.19;4975640;28;45525;-71
2021/12/06 07:42:20;;;;;;;;;9.50;8.25;;;;;7.34;73.94;100883.72;4997792;27;45397;-73
2021/12/06 07:44:46;;;;;;;;;9.50;8.50;;;;;7.71;73.59;100939.69;4990017;27;45524;-71
2021/12/06 07:47:13;;;;;;;;;8.00;8.00;;;;;7.73;73.12;100943.13;4993445;27;45174;-72
2021/12/06 07:49:39;;;;;;;;;12.75;9.00;;;;;7.59;74.03;100915.41;4973512;28;45404;-72
2021/12/06 07:52:06;;;;;;;;;12.50;11.75;;;;;7.79;73.28;100932.28;4972347;28;45395;-72
2021/12/06 07:54:33;;;;;;;;;10.00;10.00;;;;;7.81;72.85;100925.16;4976379;28;45432;-70
2021/12/06 07:56:59;;;;;;;;;11.25;11.00;;;;;7.85;72.57;100945.31;4993897;27;45471;-71
2021/12/06 07:59:25;;;;;;;;;16.75;11.00;;;;;7.78;72.76;100931.44;4994443;27;45685;-71
2021/12/06 08:01:50;;;;;;;;;16.75;10.00;;;;;7.84;73.41;100952.38;4976286;28;47024;-73
2021/12/06 08:04:16;;;;;;;;;13.25;11.00;;;;;7.82;73.15;100940.13;4967044;28;45508;-72
2021/12/06 08:06:42;;;;;;;;;16.50;10.25;;;;;7.88;72.35;100934.59;4970958;28;45413;-71
2021/12/06 08:09:09;;;;;;;;;13.75;12.00;;;;;7.84;72.96;100925.06;4976743;28;45510;-71
2021/12/06 08:11:35;;;;;;;;;16.50;10.25;;;;;7.75;72.48;100915.66;4994046;28;45490;-72
2021/12/06 08:14:01;;;;;;;;;11.75;10.75;;;;;7.98;72.68;100933.31;4966271;28;45423;-74
2021/12/06 08:16:31;;;;;;;;;15.00;12.75;;;;;7.99;72.38;100932.38;4981192;27;45592;-73
2021/12/06 08:18:59;;;;;;;;;8.25;8.25;;;;;7.98;72.34;100928.88;4972216;28;45645;-72
2021/12/06 08:21:25;;;;;;;;;15.75;13.75;;;;;7.99;72.00;100937.69;4986905;28;45996;-72
2021/12/06 08:23:53;;;;;;;;;16.00;12.00;;;;;7.98;72.59;100936.81;4973496;28;45653;-70
2021/12/06 08:26:23;;;;;;;;;14.00;9.50;;;;;7.93;72.81;100922.88;4985375;27;45458;-71
2021/12/06 08:28:50;;;;;;;;;21.00;15.25;;;;;7.98;72.79;100925.38;4998777;27;45671;-72
2021/12/06 08:31:18;;;;;;;;;11.25;9.75;;;;;7.76;72.79;100884.75;4963003;28;48236;-77
2021/12/06 08:33:46;;;;;;;;;17.25;13.00;;;;;7.92;72.75;100901.75;4977881;28;45620;-76
2021/12/06 08:36:12;;;;;;;;;19.25;13.75;;;;;7.74;72.69;100871.59;4981326;27;45610;-73
2021/12/06 08:38:40;;;;;;;;;18.50;14.50;;;;;8.09;72.34;100927.59;4976184;28;45256;-70
2021/12/06 08:41:10;;;;;;;;;13.00;13.00;;;;;8.12;71.49;100930.97;4971480;28;45988;-73
2021/12/06 08:43:37;;;;;;;;;13.50;11.50;;;;;8.17;72.03;100918.38;4985630;28;45334;-73
2021/12/06 08:46:08;;;;;;;;;17.25;16.75;;;;;8.23;70.47;100910.19;4989861;28;45291;-72
2021/12/06 08:48:37;;;;;;;;;20.50;17.00;;;;;8.33;70.17;100929.19;4982577;28;45489;-72
2021/12/06 08:51:10;;;;;;;;;15.25;14.00;;;;;8.28;70.43;100907.34;4977900;28;46466;-72
2021/12/06 08:53:36;;;;;;;;;22.00;20.00;;;;;8.32;69.94;100908.06;4993797;28;45612;-73
2021/12/06 08:56:02;;;;;;;;;14.25;12.25;;;;;8.34;70.29;100904.50;4993748;28;45548;-73
2021/12/06 08:58:28;;;;;;;;;15.75;14.00;;;;;8.39;69.78;100905.16;4989474;27;45474;-72
2021/12/06 09:00:54;;;;;;;;;16.00;15.00;;;;;8.42;69.20;100906.81;4977339;28;46584;-70
2021/12/06 09:03:20;;;;;;;;;14.50;14.50;;;;;8.39;68.71;100897.19;4972151;28;45336;-72
2021/12/06 09:05:50;;;;;;;;;17.25;17.25;;;;;8.20;69.07;100870.59;4975202;28;45422;-75
2021/12/06 09:08:16;;;;;;;;;16.50;14.00;;;;;8.41;68.94;100903.28;4976210;28;45428;-75
2021/12/06 09:10:43;;;;;;;;;17.50;17.50;;;;;8.35;68.93;100892.97;4993648;27;46070;-75
2021/12/06 09:13:09;;;;;;;;;22.00;18.50;;;;;8.25;68.80;100873.91;4993676;27;45219;-74
2021/12/06 09:15:35;;;;;;;;;13.00;13.00;;;;;8.46;69.51;100909.28;4993539;28;45200;-74
2021/12/06 09:18:01;;;;;;;;;17.50;14.50;;;;;8.38;68.71;100891.97;4994043;27;45256;-74
2021/12/06 09:20:33;;;;;;;;;17.00;15.25;;;;;8.61;67.58;100921.00;4993501;28;46180;-73
2021/12/06 09:22:59;;;;;;;;;17.00;17.00;;;;;8.66;68.23;100929.63;4976029;28;45300;-71
2021/12/06 09:25:25;;;;;;;;;12.75;10.50;;;;;8.75;66.97;100931.03;4993485;27;45223;-74
2021/12/06 09:27:50;;;;;;;;;13.75;13.75;;;;;8.71;66.38;100922.31;4993301;28;45547;-71
2021/12/06 09:30:20;;;;;;;;;18.25;13.50;;;;;8.81;66.48;100915.69;4975331;28;48109;-73
2021/12/06 09:32:47;;;;;;;;;13.25;10.25;;;;;8.85;66.26;100912.00;4991817;27;45490;-74
2021/12/06 09:35:16;;;;;;;;;18.75;11.50;;;;;8.84;66.35;100920.84;4975731;28;45288;-73
2021/12/06 09:37:44;;;;;;;;;14.00;9.25;;;;;8.77;66.67;100930.03;4993585;28;45398;-73
2021/12/06 09:40:11;;;;;;;;;24.75;17.00;;;;;8.78;67.67;100923.78;4993228;27;45428;-74
2021/12/06 09:42:37;;;;;;;;;19.50;14.75;;;;;8.78;67.18;100920.28;4992966;27;45386;-73
2021/12/06 09:45:08;;;;;;;;;18.00;12.75;;;;;8.79;67.30;100922.88;4993265;28;45304;-74
2021/12/06 09:47:34;;;;;;;;;19.00;17.00;;;;;8.80;66.86;100923.72;4992995;27;45642;-74
2021/12/06 09:50:00;;;;;;;;;13.75;13.25;;;;;8.85;67.02;100925.25;4992990;28;46023;-74
2021/12/06 09:52:26;;;;;;;;;15.50;14.75;;;;;8.85;65.97;100924.38;4982305;28;46133;-74
2021/12/06 09:54:51;;;;;;;;;14.25;12.00;;;;;8.86;66.75;100924.34;4973457;28;45383;-72
2021/12/06 09:57:17;;;;;;;;;14.50;11.00;;;;;8.84;65.32;100920.00;4971636;28;45311;-72
2021/12/06 09:59:44;;;;;;;;;11.75;10.25;;;;;8.78;65.37;100907.88;4973418;28;45252;-72
2021/12/06 10:02:16;;;;;;;;;15.25;13.00;;;;;8.74;65.70;100914.25;4972564;28;45656;-73
2021/12/06 10:04:48;;;;;;;;;10.00;6.25;;;;;8.58;65.29;100903.44;4956649;28;45439;-74
2021/12/06 10:07:14;;;;;;;;;18.50;10.50;;;;;8.66;65.38;100918.16;4974706;28;45517;-73
2021/12/06 10:09:42;;;;;;;;;9.75;9.75;;;;;8.70;65.02;100920.59;4956039;28;46852;-73
2021/12/06 10:12:10;;;;;;;;;9.00;9.00;;;;;8.71;63.77;100918.81;4956302;28;45336;-73
2021/12/06 10:14:37;;;;;;;;;10.00;10.00;;;;;8.65;64.97;100914.66;4972729;28;45691;-73
2021/12/06 10:17:05;;;;;;;;;11.50;10.25;;;;;8.65;65.75;100904.03;4975273;28;45523;-72
2021/12/06 10:19:32;;;;;;;;;10.00;10.00;;;;;8.66;65.75;100881.91;4958672;28;45897;-74
2021/12/06 10:21:58;;;;;;;;;13.00;9.00;;;;;8.58;65.88;100876.06;4957435;28;45466;-73
2021/12/06 10:24:26;;;;;;;;;11.25;9.75;;;;;8.68;65.56;100881.81;4975724;28;45264;-73
2021/12/06 10:27:06;;;;;;;;;13.75;12.00;;;;;8.66;65.94;100881.03;4976044;28;45301;-73
2021/12/06 10:29:40;;;;;;;;;13.50;11.75;;;;;8.69;66.23;100879.09;4975255;28;45575;-74
2021/12/06 10:32:16;;;;;;;;;10.75;9.75;;;;;8.65;65.52;100874.88;4975328;28;45488;-73
2021/12/06 10:34:49;;;;;;;;;11.00;11.00;;;;;8.67;65.74;100880.09;4975907;28;45330;-74
2021/12/06 10:37:46;;;;;;;;;11.00;9.50;;;;;8.68;66.23;100860.63;4976658;28;45374;-73
2021/12/06 10:40:28;;;;;;;;;9.00;7.25;;;;;8.60;65.37;100831.81;4958132;28;47150;-74
2021/12/06 10:42:55;;;;;;;;;10.00;8.75;;;;;8.58;65.72;100838.94;4975413;28;45422;-74
2021/12/06 10:45:24;;;;;;;;;12.50;9.25;;;;;8.61;65.50;100854.75;4975612;28;45434;-73
2021/12/06 10:48:11;;;;;;;;;9.75;9.75;;;;;8.62;65.90;100839.69;4975799;28;45314;-74
2021/12/06 10:50:59;;;;;;;;;7.25;6.00;;;;;8.59;66.04;100824.75;4975432;28;45355;-73
2021/12/06 10:53:32;;;;;;;;;7.25;7.25;;;;;8.70;66.17;100827.78;5094854;27;45428;-72
2021/12/06 10:55:58;;;;;;;;;12.00;12.00;;;;;8.69;65.69;100831.38;5080467;27;45393;-73
2021/12/06 10:58:29;;;;;;;;;16.75;14.50;;;;;8.75;66.56;100825.81;5098966;27;45589;-74
2021/12/06 11:01:06;;;;;;;;;10.25;9.50;;;;;8.75;66.05;100820.53;5098568;27;45460;-74
2021/12/06 11:03:35;;;;;;;;;9.75;9.00;;;;;8.65;66.14;100818.34;5080020;27;45353;-74
2021/12/06 11:06:08;;;;;;;;;11.00;11.00;;;;;8.74;65.43;100823.25;5098810;27;45448;-74
2021/12/06 11:08:36;;;;;;;;;14.00;10.75;;;;;8.65;65.86;100800.63;5099048;27;45445;-75
2021/12/06 11:11:12;;;;;;;;;22.00;12.25;;;;;8.96;65.99;100817.81;5098375;27;45616;-74
2021/12/06 11:13:44;;;;;;;;;13.75;10.50;;;;;9.05;66.18;100801.47;5113664;27;45302;-72
2021/12/06 11:16:20;;;;;;;;;13.75;13.75;;;;;9.02;64.96;100791.00;5098851;27;45299;-72
2021/12/06 11:18:49;;;;;;;;;14.50;13.00;;;;;9.18;65.35;100801.75;5080533;27;45448;-74
2021/12/06 11:21:36;;;;;;;;;18.75;14.00;;;;;9.21;65.72;100797.16;5080410;27;46735;-72
2021/12/06 11:24:08;;;;;;;;;11.50;11.50;;;;;9.24;65.52;100804.13;5079767;27;45744;-73
2021/12/06 11:26:41;;;;;;;;;14.00;11.00;;;;;9.03;64.56;100787.44;5080060;27;45275;-72
2021/12/06 11:29:28;;;;;;;;;9.00;9.00;;;;;9.21;65.82;100813.09;5080000;27;45554;-72
2021/12/06 11:32:05;;;;;;;;;15.00;13.25;;;;;9.25;64.65;100825.31;5098067;27;46203;-74
2021/12/06 11:34:36;;;;;;;;;11.75;10.00;;;;;9.25;65.41;100804.06;5098038;27;45390;-74
2021/12/06 11:37:09;;;;;;;;;12.75;7.75;;;;;9.16;65.35;100788.56;5098153;27;45398;-74
2021/12/06 11:39:34;;;;;;;;;12.75;12.25;;;;;8.89;64.65;100740.31;5079842;27;45679;-72
2021/12/06 11:42:00;;;;;;;;;11.25;10.50;;;;;9.23;65.68;100783.81;5098163;27;46139;-73
2021/12/06 11:44:31;;;;;;;;;13.50;10.00;;;;;9.21;65.32;100761.81;5098051;27;45400;-73